This is the latest recevied weather packets stored in our database for station/object W1HS. If no packets are shown the sender has not sent any weather packets the latest 10 day(s).
| Time | Temp. | Humidity | Pressure | Rain* | Wind** | Luminosity | Snow |
|---|---|---|---|---|---|---|---|
| 1777816819 | 7.22° C | 68% | 988.1 hPa | 0 mm | - | 348 W/m² | - |
| 1777816219 | 6.67° C | 71% | 988.2 hPa | 0 mm | - | 307 W/m² | - |
| 1777815620 | 6.11° C | 73% | 988.4 hPa | 0 mm | - | 269 W/m² | - |
| 1777815020 | 6.11° C | 72% | 988.5 hPa | 0 mm | - | 264 W/m² | - |
| 1777814419 | 5.56° C | 76% | 988.4 hPa | 0 mm | - | 244 W/m² | - |
| 1777813820 | 5.56° C | 78% | 988.4 hPa | 0 mm | - | 232 W/m² | - |
| 1777813219 | 5° C | 79% | 988.5 hPa | 0 mm | - | 207 W/m² | - |
| 1777812619 | 5° C | 80% | 988.6 hPa | 0 mm | - | 202 W/m² | - |
| 1777812028 | 4.44° C | 81% | 988.5 hPa | 0 mm | - | 179 W/m² | - |
| 1777811420 | 4.44° C | 82% | 988.5 hPa | 0 mm | - | 139 W/m² | - |
| 1777810819 | 4.44° C | 83% | 988.6 hPa | 0 mm | - | 116 W/m² | - |
| 1777810219 | 3.89° C | 82% | 988.6 hPa | 0 mm | - | 91 W/m² | - |
| 1777809621 | 3.89° C | 83% | 988.5 hPa | 0 mm | - | 86 W/m² | - |
| 1777809019 | 3.89° C | 84% | 988.6 hPa | 0 mm | - | 74 W/m² | - |
| 1777808419 | 3.89° C | 85% | 988.6 hPa | 0 mm | - | 67 W/m² | - |
| 1777807819 | 3.33° C | 86% | 988.6 hPa | 0 mm | - | 53 W/m² | - |
| 1777807219 | 3.33° C | 87% | 988.5 hPa | 0 mm | - | 40 W/m² | - |
| 1777806619 | 3.33° C | 87% | 988.4 hPa | 0 mm | - | 33 W/m² | - |
| 1777806084 | 3.33° C | 89% | 988.5 hPa | 0 mm | - | 21 W/m² | - |
| 1777805779 | 3.33° C | 89% | 988.5 hPa | 0 mm | - | 23 W/m² | - |
| 1777805181 | 3.33° C | 89% | 988.4 hPa | 0 mm | - | 25 W/m² | - |
| 1777804579 | 3.33° C | 89% | 988.3 hPa | 0 mm | - | 23 W/m² | - |
| 1777803981 | 2.78° C | 89% | 988.3 hPa | 0 mm | - | 12 W/m² | - |
| 1777803379 | 2.78° C | 90% | 988.3 hPa | 0 mm | - | 11 W/m² | - |
| 1777802781 | 2.78° C | 90% | 988.3 hPa | 0 mm | - | 0 W/m² | - |
* Rain latest hour (hover to see other rain measurements)
** Current wind speed in m/s (hover to see current wind gust speed)